Time;durP1;ratioP1;P1;durP2;ratioP2;P2;SDS_P1;SDS_P2;PMS_P1;PMS_P2;Temp;Humidity;BMP_temperature;BMP_pressure;BME280_temperature;BME280_humidity;BME280_pressure;Samples;Min_cycle;Max_cycle;Signal;HPM_P1;HPM_P2
2024/04/12 00:01:10;;;;;;;3.33;1.60;;;;;;;7.85;79.73;97371.94;5496733;26;20240;-85
2024/04/12 00:03:36;;;;;;;2.93;1.70;;;;;;;7.75;80.11;97371.25;5495695;26;20624;-85
2024/04/12 00:06:15;;;;;;;3.17;1.60;;;;;;;7.67;80.70;97364.16;5496122;26;20276;-85
2024/04/12 00:08:42;;;;;;;2.10;1.47;;;;;;;7.48;81.11;97362.59;5496939;26;20696;-85
2024/04/12 00:11:10;;;;;;;5.27;1.60;;;;;;;7.45;80.97;97364.69;5498495;26;20740;-85
2024/04/12 00:13:40;;;;;;;3.87;2.10;;;;;;;7.58;80.39;97362.47;5496115;26;20260;-85
2024/04/12 00:16:10;;;;;;;3.63;2.27;;;;;;;7.43;80.01;97358.78;5498966;26;20226;-85
2024/04/12 00:18:37;;;;;;;2.33;1.90;;;;;;;7.19;81.33;97354.22;5499041;26;20560;-85
2024/04/12 00:21:08;;;;;;;3.60;1.83;;;;;;;7.28;81.58;97348.03;5498723;26;20316;-85
2024/04/12 00:23:34;;;;;;;4.27;1.67;;;;;;;7.44;81.15;97349.94;5498171;26;20267;-85
2024/04/12 00:26:03;;;;;;;1.97;1.80;;;;;;;7.30;80.75;97353.97;5498943;26;20313;-85
2024/04/12 00:28:30;;;;;;;4.77;1.53;;;;;;;7.19;81.93;97358.66;5497272;26;20644;-85
2024/04/12 00:31:01;;;;;;;2.93;2.03;;;;;;;7.37;82.16;97364.66;5499684;26;20276;-85
2024/04/12 00:33:31;;;;;;;2.60;1.93;;;;;;;7.28;81.85;97352.50;5498728;26;20232;-85
2024/04/12 00:36:07;;;;;;;4.47;2.00;;;;;;;7.18;81.32;97357.81;5499574;26;20313;-85
2024/04/12 00:38:36;;;;;;;2.63;1.73;;;;;;;7.22;81.92;97369.63;5500089;26;20313;-85
2024/04/12 00:41:11;;;;;;;3.60;1.70;;;;;;;7.14;82.18;97355.66;5498359;26;20568;-85
2024/04/12 00:43:45;;;;;;;4.20;2.37;;;;;;;7.18;82.19;97351.75;5497893;26;20339;-85
2024/04/12 00:46:17;;;;;;;3.83;1.80;;;;;;;7.06;82.12;97347.75;5500315;26;20220;-85
2024/04/12 00:48:43;;;;;;;2.37;2.00;;;;;;;7.13;82.30;97346.16;5501105;26;20225;-85
2024/04/12 00:51:15;;;;;;;5.20;1.93;;;;;;;7.10;82.74;97342.03;5499807;26;20228;-85
2024/04/12 00:53:45;;;;;;;3.00;1.90;;;;;;;7.13;82.95;97343.53;5501248;26;20229;-86
2024/04/12 00:56:14;;;;;;;4.67;2.10;;;;;;;7.00;82.99;97343.97;5502493;26;20340;-84
2024/04/12 00:58:41;;;;;;;4.63;1.83;;;;;;;7.09;82.50;97339.59;5505295;26;20274;-85
2024/04/12 01:01:15;;;;;;;3.33;2.00;;;;;;;7.01;83.25;97342.13;5495064;26;20233;-84
2024/04/12 01:03:45;;;;;;;6.40;1.93;;;;;;;7.02;83.51;97343.78;5524525;26;20660;-85
2024/04/12 01:06:17;;;;;;;4.20;1.70;;;;;;;7.02;84.18;97347.25;5496055;26;20275;-85
2024/04/12 01:08:46;;;;;;;3.53;1.40;;;;;;;6.86;83.95;97352.38;5496711;26;20224;-85
2024/04/12 01:11:14;;;;;;;4.43;2.10;;;;;;;7.04;82.62;97341.84;5496484;26;20228;-85
2024/04/12 01:13:40;;;;;;;4.77;1.90;;;;;;;6.89;82.65;97350.25;5495569;26;20224;-85
2024/04/12 01:16:10;;;;;;;2.53;1.70;;;;;;;6.82;82.47;97348.38;5496484;26;20362;-85
2024/04/12 01:18:36;;;;;;;5.10;1.83;;;;;;;6.67;82.68;97340.28;5495635;26;20228;-85
2024/04/12 01:21:10;;;;;;;1.80;1.57;;;;;;;6.56;83.13;97345.72;5496449;26;20744;-85
2024/04/12 01:23:40;;;;;;;2.17;1.60;;;;;;;6.66;83.32;97343.84;5496318;26;20272;-86
2024/04/12 01:26:12;;;;;;;4.27;1.83;;;;;;;6.74;83.10;97349.16;5497044;26;20224;-85
2024/04/12 01:28:38;;;;;;;3.77;2.23;;;;;;;6.60;83.32;97347.09;5525616;26;20556;-85
2024/04/12 01:31:07;;;;;;;6.03;1.80;;;;;;;6.64;84.26;97344.97;5496513;26;20752;-85
2024/04/12 01:33:33;;;;;;;2.73;1.90;;;;;;;6.71;84.41;97339.00;5494299;26;20317;-85
2024/04/12 01:36:05;;;;;;;4.93;1.80;;;;;;;6.66;83.59;97348.25;5494667;26;20263;-85
2024/04/12 01:38:36;;;;;;;3.63;1.97;;;;;;;6.60;84.37;97346.25;5496825;26;20717;-85
2024/04/12 01:41:05;;;;;;;3.23;1.80;;;;;;;6.69;84.40;97350.59;5497432;26;20275;-85
2024/04/12 01:43:36;;;;;;;2.50;1.57;;;;;;;6.66;84.83;97336.00;5496197;26;20689;-85
2024/04/12 01:46:07;;;;;;;5.30;2.23;;;;;;;6.69;85.04;97342.72;5496900;26;20321;-85
2024/04/12 01:48:34;;;;;;;4.90;2.07;;;;;;;6.67;84.39;97335.03;5494059;26;20233;-85
2024/04/12 01:51:04;;;;;;;2.77;2.00;;;;;;;6.61;85.35;97342.66;5497161;26;20225;-85
2024/04/12 01:53:37;;;;;;;2.63;2.17;;;;;;;6.52;85.39;97339.16;5496636;26;20324;-85
2024/04/12 01:56:09;;;;;;;2.57;1.60;;;;;;;6.52;84.96;97340.94;5497614;26;20229;-85
2024/04/12 01:58:38;;;;;;;2.87;2.10;;;;;;;6.49;85.25;97342.06;5497656;26;20716;-85
2024/04/12 02:01:07;;;;;;;3.43;1.90;;;;;;;6.46;85.05;97352.03;5497746;26;20228;-85
2024/04/12 02:03:33;;;;;;;3.87;2.10;;;;;;;6.61;85.09;97353.13;5497497;26;20680;-85
2024/04/12 02:06:05;;;;;;;5.07;2.07;;;;;;;6.42;83.84;97350.69;5496129;26;20245;-85
2024/04/12 02:08:32;;;;;;;2.57;1.90;;;;;;;6.41;83.49;97355.09;5497491;26;20603;-85
2024/04/12 02:11:05;;;;;;;3.53;1.80;;;;;;;6.37;83.55;97356.34;5498506;26;20547;-85
2024/04/12 02:13:36;;;;;;;3.17;1.53;;;;;;;6.24;84.03;97355.91;5497896;26;20224;-85
2024/04/12 02:16:10;;;;;;;2.27;1.67;;;;;;;6.22;84.21;97358.66;5498431;26;20313;-85
2024/04/12 02:18:38;;;;;;;2.50;1.70;;;;;;;6.35;84.66;97360.09;5496231;26;20611;-86
2024/04/12 02:21:10;;;;;;;2.67;1.80;;;;;;;6.26;84.82;97359.19;5497921;26;20229;-86
2024/04/12 02:23:37;;;;;;;4.23;2.00;;;;;;;6.26;85.09;97348.72;5497485;26;20275;-85
2024/04/12 02:26:07;;;;;;;3.93;1.97;;;;;;;6.19;84.67;97358.97;5496636;26;20271;-84
2024/04/12 02:28:36;;;;;;;3.73;1.90;;;;;;;6.29;84.78;97348.44;5496962;26;20228;-85
2024/04/12 02:31:10;;;;;;;3.60;2.10;;;;;;;6.22;84.78;97350.81;5494670;26;20232;-85
2024/04/12 02:33:36;;;;;;;2.43;1.90;;;;;;;6.17;84.91;97354.84;5492740;26;20274;-85
2024/04/12 02:36:11;;;;;;;1.87;1.60;;;;;;;6.21;85.41;97353.56;5493855;26;20561;-85
2024/04/12 02:38:37;;;;;;;2.50;1.53;;;;;;;6.18;84.43;97357.31;5494431;26;20255;-85
2024/04/12 02:41:06;;;;;;;2.20;1.47;;;;;;;6.31;84.64;97345.66;5495054;26;20391;-85
2024/04/12 02:43:35;;;;;;;5.00;1.90;;;;;;;6.25;84.31;97352.31;5493639;26;20366;-85
2024/04/12 02:46:03;;;;;;;5.57;1.80;;;;;;;6.13;85.04;97353.50;5493575;26;20228;-85
2024/04/12 02:48:33;;;;;;;1.70;1.60;;;;;;;6.10;84.88;97351.16;5493893;26;20798;-85
2024/04/12 02:51:03;;;;;;;3.27;1.87;;;;;;;6.05;85.04;97351.63;5492282;26;20233;-84
2024/04/12 02:53:29;;;;;;;3.63;1.90;;;;;;;5.93;85.48;97344.94;5493124;26;20693;-84
2024/04/12 02:56:02;;;;;;;1.93;1.43;;;;;;;5.91;85.87;97341.66;5493026;26;20228;-85
2024/04/12 02:58:28;;;;;;;2.83;1.70;;;;;;;6.13;86.19;97348.28;5493796;26;20236;-85
2024/04/12 03:00:59;;;;;;;2.60;1.87;;;;;;;5.89;85.71;97346.22;5494266;26;20709;-85
2024/04/12 03:03:26;;;;;;;3.37;1.80;;;;;;;5.93;86.15;97351.94;5493318;26;20225;-85
2024/04/12 03:06:05;;;;;;;3.43;1.90;;;;;;;5.96;85.66;97360.34;5492586;26;20264;-84
2024/04/12 03:08:32;;;;;;;2.20;1.70;;;;;;;5.92;85.65;97355.56;5492527;26;20282;-85
2024/04/12 03:11:14;;;;;;;3.63;1.70;;;;;;;5.77;85.86;97355.19;5493223;26;20271;-85
2024/04/12 03:13:40;;;;;;;3.20;1.70;;;;;;;5.92;86.21;97361.63;5491491;26;20237;-85
2024/04/12 03:16:14;;;;;;;2.83;1.90;;;;;;;5.85;86.39;97362.34;5491783;26;20229;-85
2024/04/12 03:18:44;;;;;;;4.17;2.13;;;;;;;5.82;86.41;97363.41;5493035;26;20228;-85
2024/04/12 03:21:17;;;;;;;3.17;2.30;;;;;;;5.81;85.93;97355.72;5492624;26;20291;-85
2024/04/12 03:23:43;;;;;;;3.10;1.60;;;;;;;5.77;86.70;97360.41;5492060;26;20362;-85
2024/04/12 03:26:14;;;;;;;4.20;1.60;;;;;;;5.73;86.30;97358.25;5490063;26;20258;-85
2024/04/12 03:28:40;;;;;;;2.93;1.40;;;;;;;5.84;86.05;97356.28;5490469;26;20256;-85
2024/04/12 03:31:09;;;;;;;4.20;1.83;;;;;;;5.79;86.41;97368.13;5494310;26;20617;-84
2024/04/12 03:33:42;;;;;;;4.73;1.53;;;;;;;5.68;87.31;97361.28;5494179;26;20252;-85
2024/04/12 03:36:26;;;;;;;2.37;1.90;;;;;;;5.73;87.15;97364.28;5494791;26;20276;-84
2024/04/12 03:41:39;;;;;;;2.10;1.70;;;;;;;5.87;86.53;97357.78;5498343;26;20288;-85
2024/04/12 03:44:08;;;;;;;4.10;1.60;;;;;;;5.81;86.78;97369.59;5511163;26;20247;-85
2024/04/12 03:46:40;;;;;;;2.93;1.80;;;;;;;5.85;86.44;97367.56;5534062;25;20236;-85
2024/04/12 03:49:09;;;;;;;3.50;1.60;;;;;;;5.68;86.35;97360.47;5533486;25;20227;-85
2024/04/12 03:51:44;;;;;;;3.33;1.50;;;;;;;5.70;86.43;97356.72;5532189;26;20255;-85
2024/04/12 03:54:17;;;;;;;8.30;2.30;;;;;;;5.69;86.04;97356.88;5533501;26;20681;-85
2024/04/12 03:56:49;;;;;;;4.07;1.63;;;;;;;5.52;86.59;97350.63;5532304;26;20279;-85
2024/04/12 03:59:15;;;;;;;1.93;1.70;;;;;;;5.59;86.45;97362.16;5532114;26;20232;-85
2024/04/12 04:01:44;;;;;;;4.50;2.00;;;;;;;5.57;86.17;97362.31;5531084;26;20235;-84
2024/04/12 04:04:17;;;;;;;2.03;1.83;;;;;;;5.48;86.61;97354.50;5533376;25;20337;-85
2024/04/12 04:06:44;;;;;;;6.23;1.93;;;;;;;5.39;87.10;97353.56;5534794;25;20243;-84
2024/04/12 04:09:19;;;;;;;2.27;1.60;;;;;;;5.40;87.28;97354.38;5534284;25;20775;-85
2024/04/12 04:11:46;;;;;;;2.77;1.77;;;;;;;5.38;87.75;97349.31;5534055;25;20257;-84
2024/04/12 04:14:16;;;;;;;3.90;1.40;;;;;;;5.40;87.76;97350.00;5529875;26;20235;-84
2024/04/12 04:16:42;;;;;;;1.83;1.50;;;;;;;5.28;87.87;97347.69;5532742;25;20239;-84
2024/04/12 04:19:12;;;;;;;1.93;1.47;;;;;;;5.31;88.57;97335.19;5529938;26;20231;-85
2024/04/12 04:21:38;;;;;;;2.57;2.00;;;;;;;5.39;88.40;97342.31;5533033;25;20348;-85
2024/04/12 04:24:11;;;;;;;2.40;1.80;;;;;;;5.37;88.10;97336.38;5532392;25;20712;-85
2024/04/12 04:26:40;;;;;;;3.57;1.80;;;;;;;5.32;88.32;97344.66;5533250;25;20266;-84
2024/04/12 04:29:09;;;;;;;2.07;1.70;;;;;;;5.27;88.49;97348.69;5532700;25;20270;-85
2024/04/12 04:31:45;;;;;;;2.60;1.70;;;;;;;5.23;88.08;97360.34;5531079;26;20375;-84
2024/04/12 04:34:14;;;;;;;2.20;1.47;;;;;;;5.14;88.64;97359.44;5532123;25;20299;-84
2024/04/12 04:36:40;;;;;;;4.07;2.27;;;;;;;5.26;87.85;97352.25;5532358;25;20320;-84
2024/04/12 04:39:14;;;;;;;14.93;9.57;;;;;;;5.32;87.56;97343.84;5532484;25;20751;-85
2024/04/12 04:41:45;;;;;;;11.40;4.90;;;;;;;5.36;87.87;97342.59;5532174;25;20326;-85
2024/04/12 04:44:15;;;;;;;9.47;3.53;;;;;;;5.36;87.97;97332.97;5533163;25;20224;-84
2024/04/12 04:46:44;;;;;;;12.63;3.97;;;;;;;5.35;88.54;97330.47;5532506;25;20240;-85
2024/04/12 04:49:15;;;;;;;6.90;3.93;;;;;;;5.29;88.14;97328.44;5533530;25;20232;-85
2024/04/12 04:51:41;;;;;;;8.33;4.03;;;;;;;5.32;88.68;97328.19;5532434;25;20223;-84
2024/04/12 04:54:11;;;;;;;5.03;3.87;;;;;;;5.33;88.78;97338.47;5529726;26;20279;-84
2024/04/12 04:56:40;;;;;;;9.77;2.93;;;;;;;5.20;89.19;97337.16;5533075;25;20691;-85
2024/04/12 04:59:16;;;;;;;3.13;2.27;;;;;;;5.34;89.34;97337.50;5533555;25;20223;-84
2024/04/12 05:01:43;;;;;;;5.93;2.57;;;;;;;5.29;88.56;97329.28;5533388;25;20224;-85
2024/04/12 05:04:15;;;;;;;9.37;2.80;;;;;;;5.39;88.70;97332.66;5532020;26;20315;-85
2024/04/12 05:06:42;;;;;;;25.00;3.50;;;;;;;5.48;88.66;97339.63;5534733;25;20236;-85
2024/04/12 05:09:12;;;;;;;11.83;2.40;;;;;;;5.45;88.91;97336.50;5534670;25;20270;-85
2024/04/12 05:11:38;;;;;;;11.53;2.93;;;;;;;5.36;89.42;97343.41;5533987;25;20269;-85
2024/04/12 05:14:13;;;;;;;5.47;2.47;;;;;;;5.46;89.71;97346.78;5533118;25;20646;-85
2024/04/12 05:16:42;;;;;;;3.10;1.90;;;;;;;5.56;89.43;97344.97;5534531;25;20250;-85
2024/04/12 05:19:12;;;;;;;3.50;2.27;;;;;;;5.68;88.76;97350.84;5532017;26;20235;-85
2024/04/12 05:21:40;;;;;;;9.00;1.90;;;;;;;5.67;88.62;97354.41;5534453;25;20395;-85
2024/04/12 05:24:10;;;;;;;5.67;2.00;;;;;;;5.61;88.63;97352.38;5532443;26;20684;-85
2024/04/12 05:26:37;;;;;;;6.60;1.90;;;;;;;5.56;89.11;97349.38;5507679;25;20245;-86
2024/04/12 05:29:09;;;;;;;6.57;2.20;;;;;;;5.63;89.48;97353.06;5497192;26;20278;-86
2024/04/12 05:31:35;;;;;;;2.80;1.70;;;;;;;5.84;89.47;97351.06;5498841;26;20228;-85
2024/04/12 05:34:06;;;;;;;3.70;1.70;;;;;;;5.91;89.30;97357.34;5497494;26;20271;-85
2024/04/12 05:36:33;;;;;;;5.73;1.80;;;;;;;5.97;89.43;97356.78;5498079;26;20232;-85
2024/04/12 05:39:08;;;;;;;7.77;1.83;;;;;;;6.10;89.09;97343.31;5496243;26;20233;-85
2024/04/12 05:41:38;;;;;;;21.63;2.80;;;;;;;6.23;89.11;97333.34;5497845;26;20220;-85
2024/04/12 05:44:07;;;;;;;10.13;2.30;;;;;;;6.25;89.49;97340.03;5496161;26;20712;-85
2024/04/12 05:46:34;;;;;;;8.03;2.13;;;;;;;6.31;89.17;97329.94;5496446;26;20738;-86
2024/04/12 05:49:09;;;;;;;3.80;1.80;;;;;;;6.48;88.81;97322.13;5498575;26;20225;-85
2024/04/12 05:51:39;;;;;;;8.80;1.70;;;;;;;6.40;88.73;97331.66;5498403;26;20229;-85
2024/04/12 05:54:10;;;;;;;12.23;3.03;;;;;;;6.42;89.01;97334.97;5496504;26;20329;-85
2024/04/12 05:56:39;;;;;;;9.47;2.93;;;;;;;6.59;88.85;97334.97;5496130;26;20237;-85
2024/04/12 05:59:13;;;;;;;6.27;4.20;;;;;;;6.73;89.05;97341.44;5497924;26;20274;-85
2024/04/12 06:01:43;;;;;;;5.57;3.33;;;;;;;6.79;87.75;97336.41;5499326;26;20224;-85
2024/04/12 06:04:18;;;;;;;6.37;3.50;;;;;;;6.68;87.77;97341.91;5496049;26;20276;-85
2024/04/12 06:06:47;;;;;;;5.77;3.10;;;;;;;6.72;88.51;97340.63;5499238;26;20282;-84
2024/04/12 06:09:19;;;;;;;2.93;2.63;;;;;;;6.88;88.14;97340.72;5499949;26;20692;-85
2024/04/12 06:11:50;;;;;;;4.50;3.03;;;;;;;6.90;88.16;97349.28;5499666;26;20232;-85
2024/04/12 06:14:20;;;;;;;15.23;2.77;;;;;;;6.94;88.14;97350.63;5497950;26;20236;-86
2024/04/12 06:16:47;;;;;;;9.77;2.20;;;;;;;7.04;88.75;97361.00;5498809;26;20282;-85
2024/04/12 06:19:17;;;;;;;5.47;2.53;;;;;;;7.12;88.65;97361.03;5498417;26;20237;-84
2024/04/12 06:21:45;;;;;;;8.07;2.33;;;;;;;7.18;88.49;97357.81;5499338;26;20255;-84
2024/04/12 06:24:17;;;;;;;9.77;2.40;;;;;;;7.27;88.35;97356.91;5506816;26;20240;-85
2024/04/12 06:26:47;;;;;;;7.33;2.00;;;;;;;7.39;87.98;97354.84;5497007;26;20244;-85
2024/04/12 06:29:17;;;;;;;12.90;2.20;;;;;;;7.53;87.48;97349.84;5499103;26;20228;-85
2024/04/12 06:31:44;;;;;;;4.13;2.43;;;;;;;7.75;87.50;97358.13;5496669;26;20236;-85
2024/04/12 06:34:17;;;;;;;5.27;2.13;;;;;;;7.86;87.88;97358.66;5495399;26;20263;-84
2024/04/12 06:36:46;;;;;;;5.60;2.20;;;;;;;8.06;87.09;97359.22;5496666;26;20248;-87
2024/04/12 06:39:26;;;;;;;6.70;2.23;;;;;;;8.17;85.69;97362.34;5497953;26;20271;-84
2024/04/12 06:41:53;;;;;;;5.30;2.40;;;;;;;8.29;85.27;97355.03;5495927;26;20238;-86
2024/04/12 06:44:22;;;;;;;6.13;2.30;;;;;;;8.53;85.84;97355.09;5497644;26;20224;-85
2024/04/12 06:46:51;;;;;;;7.57;2.00;;;;;;;8.85;85.05;97352.47;5498221;26;20719;-84
2024/04/12 06:49:26;;;;;;;4.03;2.00;;;;;;;9.00;84.50;97347.38;5498397;26;20229;-85
2024/04/12 06:52:11;;;;;;;5.87;1.93;;;;;;;9.10;84.65;97342.78;5494946;26;20232;-86
2024/04/12 06:54:47;;;;;;;5.73;2.27;;;;;;;9.26;84.72;97341.91;5493068;26;20232;-85
2024/04/12 06:57:17;;;;;;;8.97;2.23;;;;;;;9.43;84.53;97341.69;5494120;26;20270;-84
2024/04/12 06:59:47;;;;;;;3.20;1.53;;;;;;;9.67;84.91;97340.81;5497448;26;20225;-87
2024/04/12 07:02:14;;;;;;;8.73;2.30;;;;;;;9.84;84.75;97336.31;5498301;26;20229;-86
2024/04/12 07:04:42;;;;;;;5.67;2.00;;;;;;;10.01;83.60;97328.16;5497628;26;20556;-84
2024/04/12 07:07:10;;;;;;;4.17;2.00;;;;;;;10.25;83.21;97317.50;5499068;26;20256;-86
2024/04/12 07:09:45;;;;;;;7.00;2.67;;;;;;;10.36;82.71;97318.94;5500307;26;20236;-85
2024/04/12 07:12:13;;;;;;;12.03;3.83;;;;;;;10.60;81.94;97328.47;5495704;26;20244;-85
2024/04/12 07:14:46;;;;;;;4.53;2.60;;;;;;;10.62;80.47;97331.78;5495352;26;20233;-86
2024/04/12 07:17:20;;;;;;;12.27;3.50;;;;;;;10.80;79.28;97325.19;5498063;26;20237;-86
2024/04/12 07:19:51;;;;;;;8.67;2.87;;;;;;;10.90;78.62;97317.00;5496259;26;20275;-86
2024/04/12 07:22:18;;;;;;;6.80;3.20;;;;;;;11.04;77.84;97313.59;5498610;26;20225;-85
2024/04/12 07:24:50;;;;;;;4.13;2.07;;;;;;;11.26;75.07;97317.19;5498953;26;20225;-85
2024/04/12 07:27:22;;;;;;;7.73;2.67;;;;;;;11.32;74.40;97322.53;5496105;26;20256;-85
2024/04/12 07:29:52;;;;;;;5.50;1.80;;;;;;;11.50;73.05;97332.78;5497700;26;20553;-85
2024/04/12 07:32:22;;;;;;;4.67;2.73;;;;;;;11.66;73.54;97337.88;5497446;26;20656;-85
2024/04/12 07:34:51;;;;;;;9.77;3.20;;;;;;;11.80;75.79;97350.28;5495955;26;20233;-84
2024/04/12 07:37:26;;;;;;;10.10;2.37;;;;;;;11.89;76.57;97351.81;5498784;26;20232;-85
2024/04/12 07:40:15;;;;;;;4.30;2.30;;;;;;;11.98;74.71;97347.22;5497493;26;20236;-84
2024/04/12 07:42:45;;;;;;;10.30;3.40;;;;;;;12.22;73.74;97336.38;5498311;26;20241;-86
2024/04/12 07:45:20;;;;;;;5.87;2.30;;;;;;;12.33;73.07;97346.44;5498566;26;20305;-84
2024/04/12 07:47:52;;;;;;;6.30;2.43;;;;;;;12.55;73.65;97336.72;5497534;26;20339;-86
2024/04/12 07:50:29;;;;;;;4.93;4.10;;;;;;;12.68;73.70;97337.66;5497064;26;20299;-86
2024/04/12 07:52:57;;;;;;;4.40;2.50;;;;;;;13.02;73.60;97329.03;5498023;26;20700;-87
2024/04/12 07:55:26;;;;;;;5.27;2.47;;;;;;;13.21;72.47;97338.16;5494644;26;20262;-87
2024/04/12 07:58:00;;;;;;;3.20;2.03;;;;;;;13.48;71.19;97342.63;5497300;26;20237;-86
2024/04/12 08:00:35;;;;;;;5.40;2.30;;;;;;;13.58;71.62;97335.94;5496460;26;20236;-87
2024/04/12 08:03:06;;;;;;;6.50;2.67;;;;;;;13.67;72.12;97324.22;5494219;26;20235;-87
2024/04/12 08:05:59;;;;;;;4.20;2.30;;;;;;;13.76;66.92;97320.41;5497129;26;20225;-85
2024/04/12 08:08:27;;;;;;;4.23;2.83;;;;;;;13.98;65.17;97322.94;5497246;26;20237;-86
2024/04/12 08:10:57;;;;;;;6.30;3.30;;;;;;;13.93;64.73;97328.00;5495581;26;20286;-85
2024/04/12 08:13:28;;;;;;;4.70;2.73;;;;;;;14.28;66.95;97321.63;5519846;26;20239;-88
2024/04/12 08:15:59;;;;;;;6.90;2.63;;;;;;;14.34;69.83;97315.53;5494299;26;20296;-86
2024/04/12 08:18:26;;;;;;;15.67;3.00;;;;;;;14.43;67.40;97309.88;5513484;26;20273;-88
2024/04/12 08:21:01;;;;;;;7.73;2.60;;;;;;;14.64;66.41;97303.56;5504405;26;20252;-84
2024/04/12 08:23:29;;;;;;;5.00;2.80;;;;;;;14.93;64.37;97305.03;5519737;26;20318;-85
2024/04/12 08:25:58;;;;;;;7.93;4.63;;;;;;;14.97;62.69;97306.25;5521208;25;20248;-85
2024/04/12 08:28:27;;;;;;;6.23;3.73;;;;;;;15.20;61.61;97306.66;5510054;26;20278;-86
2024/04/12 08:31:05;;;;;;;7.53;4.60;;;;;;;15.25;62.50;97306.84;5510042;26;20315;-84
2024/04/12 08:33:32;;;;;;;6.87;5.03;;;;;;;15.30;61.13;97303.59;5509280;26;20238;-87
2024/04/12 08:36:02;;;;;;;11.70;5.23;;;;;;;15.25;61.79;97304.19;5495495;26;20244;-86
2024/04/12 08:38:28;;;;;;;5.93;5.00;;;;;;;15.47;61.32;97308.31;5530648;25;20286;-88
2024/04/12 08:40:58;;;;;;;8.77;5.17;;;;;;;15.57;61.58;97313.16;5507635;26;20720;-85
2024/04/12 08:43:41;;;;;;;8.17;4.67;;;;;;;15.72;61.61;97313.75;5528471;25;20235;-85
2024/04/12 08:46:17;;;;;;;6.33;4.47;;;;;;;15.96;60.74;97301.63;5496069;26;20236;-85
2024/04/12 08:48:43;;;;;;;9.67;5.27;;;;;;;15.96;59.99;97307.75;5496051;26;20228;-86
2024/04/12 08:51:13;;;;;;;9.03;5.10;;;;;;;15.97;59.34;97304.06;5493650;26;20766;-86
2024/04/12 08:53:44;;;;;;;6.93;4.90;;;;;;;16.07;59.68;97309.75;5495981;26;20285;-87
2024/04/12 08:56:17;;;;;;;9.40;5.80;;;;;;;16.31;58.79;97310.88;5497476;26;20280;-88
2024/04/12 08:58:52;;;;;;;7.63;4.93;;;;;;;16.29;59.39;97312.94;5496283;26;20240;-88
2024/04/12 09:01:21;;;;;;;8.50;4.87;;;;;;;16.43;58.83;97301.16;5497026;26;20223;-86
2024/04/12 09:03:47;;;;;;;6.33;4.50;;;;;;;16.61;59.48;97311.97;5493356;26;20305;-88
2024/04/12 09:06:22;;;;;;;7.10;4.17;;;;;;;16.52;57.35;97302.59;5495780;26;20704;-88
2024/04/12 09:08:51;;;;;;;8.63;4.33;;;;;;;16.63;58.09;97312.56;5495167;26;20288;-88
2024/04/12 09:11:25;;;;;;;7.27;4.10;;;;;;;16.60;57.63;97302.34;5495274;26;20244;-87
2024/04/12 09:13:55;;;;;;;4.67;2.90;;;;;;;16.62;55.09;97308.25;5514154;25;20235;-87
2024/04/12 09:16:23;;;;;;;7.67;3.97;;;;;;;16.77;56.12;97311.44;5516893;26;20282;-87
2024/04/12 09:18:51;;;;;;;11.37;3.80;;;;;;;16.85;56.09;97311.16;5517414;26;20235;-87
2024/04/12 09:21:36;;;;;;;5.83;3.37;;;;;;;16.88;56.68;97301.94;5516700;26;20243;-87
2024/04/12 09:24:09;;;;;;;9.43;3.83;;;;;;;16.95;56.35;97303.53;5511466;26;20819;-88
2024/04/12 09:26:55;;;;;;;6.30;3.40;;;;;;;17.09;55.45;97301.56;5516407;26;20776;-88
2024/04/12 09:29:27;;;;;;;6.93;2.73;;;;;;;17.19;54.80;97300.06;5509687;26;20286;-86
2024/04/12 09:34:42;;;;;;;5.90;2.60;;;;;;;17.15;52.40;97298.06;5511362;26;20286;-87
2024/04/12 09:40:04;;;;;;;4.40;2.77;;;;;;;17.25;52.83;97309.00;5510959;26;20269;-87
2024/04/12 09:42:44;;;;;;;5.90;2.67;;;;;;;17.44;52.74;97302.69;5498310;26;20243;-89
2024/04/12 09:45:19;;;;;;;7.33;2.10;;;;;;;17.67;51.79;97299.41;5495733;26;20278;-89
2024/04/12 10:37:47;;;;;;;4.90;2.17;;;;;;;19.13;49.33;97274.84;5494652;26;20274;-88
2024/04/12 10:40:16;;;;;;;2.87;1.47;;;;;;;19.27;50.33;97259.41;5492979;26;20227;-89
2024/04/12 10:42:46;;;;;;;4.60;1.40;;;;;;;19.44;50.36;97259.56;5524419;26;20232;-89
2024/04/12 10:45:15;;;;;;;3.20;1.50;;;;;;;19.54;49.20;97252.56;5494884;26;20268;-88
2024/04/12 10:47:44;;;;;;;2.03;1.33;;;;;;;19.44;48.85;97251.53;5502592;26;20257;-88
2024/04/12 10:50:19;;;;;;;3.53;1.60;;;;;;;19.41;48.11;97258.16;5500016;26;20625;-89
2024/04/12 10:52:48;;;;;;;5.17;1.60;;;;;;;19.42;48.10;97249.09;5515714;26;20286;-88
2024/04/12 10:55:16;;;;;;;3.67;1.40;;;;;;;19.26;46.67;97250.56;5497077;26;20224;-88
2024/04/12 10:57:47;;;;;;;2.47;1.20;;;;;;;19.04;48.17;97252.19;5497003;26;20236;-88
2024/04/12 11:00:14;;;;;;;4.57;1.50;;;;;;;19.11;48.37;97252.88;5497929;26;20225;-89
2024/04/12 11:02:45;;;;;;;4.33;1.47;;;;;;;19.17;48.71;97253.81;5497544;26;20332;-89
2024/04/12 11:05:38;;;;;;;1.40;1.20;;;;;;;19.40;49.21;97256.53;5496811;26;20272;-89
2024/04/12 11:08:08;;;;;;;2.30;1.23;;;;;;;19.27;46.52;97251.41;5497372;26;20278;-89
2024/04/12 11:10:38;;;;;;;3.80;1.43;;;;;;;19.22;46.94;97246.75;5495882;26;20237;-88
2024/04/12 11:13:06;;;;;;;1.90;1.20;;;;;;;19.05;46.24;97244.97;5495663;26;20318;-89
2024/04/12 11:32:14;;;;;;;4.57;1.27;;;;;;;19.72;48.17;97222.22;5507491;26;20277;-88
2024/04/12 11:34:44;;;;;;;4.03;1.60;;;;;;;19.58;47.11;97218.16;5496667;26;20279;-87
2024/04/12 11:37:16;;;;;;;3.83;1.37;;;;;;;19.59;47.94;97215.25;5513102;26;20255;-89
2024/04/12 11:39:45;;;;;;;3.00;1.50;;;;;;;19.51;47.26;97204.91;5516816;25;20283;-89
2024/04/12 11:42:15;;;;;;;7.53;1.47;;;;;;;19.71;49.40;97229.41;5506832;26;20306;-88
2024/04/12 11:44:47;;;;;;;7.40;1.40;;;;;;;19.78;48.09;97219.41;5506856;26;20279;-88
2024/04/12 11:47:15;;;;;;;1.23;1.13;;;;;;;19.79;48.26;97212.97;5516907;26;20249;-89
2024/04/12 11:49:45;;;;;;;2.50;1.20;;;;;;;19.79;48.32;97212.19;5519192;26;20236;-89
2024/04/12 11:52:15;;;;;;;4.60;1.70;;;;;;;19.74;47.59;97220.09;5502235;26;20242;-89
2024/04/12 11:54:46;;;;;;;3.60;1.80;;;;;;;19.78;47.84;97199.84;5521284;26;20243;-88
2024/04/12 11:57:12;;;;;;;2.63;1.40;;;;;;;19.74;47.95;97193.38;5518118;25;20245;-87
2024/04/12 11:59:43;;;;;;;2.77;1.60;;;;;;;19.88;49.39;97189.38;5520162;26;20747;-89
2024/04/12 12:02:14;;;;;;;2.80;1.67;;;;;;;19.86;48.10;97188.81;5519890;26;20290;-89
2024/04/12 12:04:42;;;;;;;5.67;2.10;;;;;;;19.94;46.40;97186.53;5506734;25;20238;-88
2024/04/12 12:07:09;;;;;;;3.40;1.57;;;;;;;19.91;47.24;97173.66;5514596;26;20276;-88
2024/04/12 12:09:40;;;;;;;3.60;1.33;;;;;;;20.02;47.07;97182.69;5496974;26;20292;-88
2024/04/12 12:12:10;;;;;;;6.40;1.60;;;;;;;20.08;49.46;97184.41;5495063;26;20361;-88
2024/04/12 12:14:38;;;;;;;2.87;1.30;;;;;;;20.09;48.30;97183.34;5495432;26;20263;-88
2024/04/12 12:17:06;;;;;;;3.87;1.47;;;;;;;20.02;47.13;97173.84;5496140;26;20242;-88
2024/04/12 12:19:34;;;;;;;2.90;1.67;;;;;;;20.02;47.42;97170.09;5496577;26;20237;-88
2024/04/12 12:22:00;;;;;;;3.23;2.00;;;;;;;20.14;47.72;97169.25;5494316;26;20229;-88
2024/04/12 12:24:28;;;;;;;2.80;1.77;;;;;;;20.13;47.58;97173.78;5522775;26;20260;-89
2024/04/12 12:26:58;;;;;;;4.60;2.17;;;;;;;20.19;47.65;97180.84;5493264;26;20300;-88
2024/04/12 12:29:28;;;;;;;4.27;1.60;;;;;;;20.23;47.77;97176.69;5491886;26;20228;-88
2024/04/12 12:31:55;;;;;;;4.33;1.40;;;;;;;20.22;48.00;97174.22;5490178;26;20266;-88
2024/04/12 12:34:23;;;;;;;2.47;1.30;;;;;;;20.26;48.09;97165.47;5492181;26;20227;-88
2024/04/12 12:36:50;;;;;;;3.67;1.30;;;;;;;20.38;48.57;97165.41;5490705;26;20725;-89
2024/04/12 12:39:19;;;;;;;5.87;1.33;;;;;;;20.44;47.80;97159.13;5490977;26;20235;-89
2024/04/12 12:41:45;;;;;;;3.07;1.50;;;;;;;20.60;46.77;97155.63;5492921;26;20227;-89
2024/04/12 12:44:18;;;;;;;1.87;1.40;;;;;;;20.50;47.00;97161.63;5490253;26;20266;-89
2024/04/12 12:46:45;;;;;;;6.10;1.63;;;;;;;20.63;47.64;97163.19;5493486;26;20248;-89
2024/04/12 12:49:13;;;;;;;3.67;1.50;;;;;;;20.64;48.69;97162.94;5523138;26;20233;-88
2024/04/12 12:51:40;;;;;;;5.97;1.63;;;;;;;20.75;47.42;97158.53;5495828;26;20229;-89
2024/04/12 12:54:08;;;;;;;6.33;1.63;;;;;;;20.63;47.53;97157.81;5493015;26;20240;-89
2024/04/12 12:56:35;;;;;;;5.47;1.70;;;;;;;20.48;47.31;97158.38;5494674;26;20327;-89
2024/04/12 12:59:03;;;;;;;4.00;1.47;;;;;;;20.59;47.56;97157.50;5494214;26;20224;-89
2024/04/12 13:01:34;;;;;;;7.13;1.77;;;;;;;20.63;48.25;97158.63;5494675;26;20270;-90
2024/04/12 13:04:05;;;;;;;3.27;2.10;;;;;;;20.60;48.28;97166.34;5496171;26;20263;-91
2024/04/12 13:06:33;;;;;;;2.27;1.27;;;;;;;20.59;47.97;97156.66;5514710;26;20251;-89
2024/04/12 13:09:03;;;;;;;4.07;1.40;;;;;;;20.72;48.16;97151.00;5512120;26;20309;-89